createdAt,value
2019-05-11T00:02:22.483Z,70.96
2019-05-11T00:04:52.810Z,70.48
2019-05-11T00:07:24.220Z,70.36
2019-05-11T00:09:57.961Z,70.66
2019-05-11T00:12:26.541Z,70.57
2019-05-11T00:14:56.886Z,70.60
2019-05-11T00:17:27.251Z,70.88
2019-05-11T00:19:57.819Z,70.76
2019-05-11T00:22:28.674Z,70.90
2019-05-11T00:24:59.764Z,70.50
2019-05-11T00:27:30.092Z,70.62
2019-05-11T00:30:00.437Z,69.70
2019-05-11T00:32:30.728Z,69.85
2019-05-11T00:35:02.984Z,69.86
2019-05-11T00:37:35.515Z,70.26
2019-05-11T00:40:14.435Z,69.48
2019-05-11T00:42:40.861Z,70.02
2019-05-11T00:45:12.733Z,69.76
2019-05-11T00:47:43.022Z,69.01
2019-05-11T00:50:14.386Z,69.55
2019-05-11T00:52:45.174Z,69.91
2019-05-11T00:55:16.931Z,70.01
2019-05-11T00:57:48.732Z,70.07
2019-05-11T01:00:19.522Z,69.66
2019-05-11T01:02:49.881Z,69.31
2019-05-11T01:05:20.813Z,69.85
2019-05-11T01:07:53.213Z,69.79
2019-05-11T01:10:40.051Z,69.41
2019-05-11T01:12:56.881Z,69.46
2019-05-11T01:15:27.508Z,69.71
2019-05-11T01:17:58.689Z,69.12
2019-05-11T01:20:28.997Z,68.47
2019-05-11T01:22:59.798Z,68.71
2019-05-11T01:25:31.153Z,69.25
2019-05-11T01:28:02.388Z,69.74
2019-05-11T01:30:32.704Z,69.70
2019-05-11T01:33:03.749Z,69.78
2019-05-11T01:35:34.074Z,69.75
2019-05-11T01:38:05.472Z,69.89
2019-05-11T01:40:36.155Z,70.04
2019-05-11T01:43:06.787Z,70.21
2019-05-11T01:45:37.220Z,70.18
2019-05-11T01:48:08.097Z,69.10
2019-05-11T01:50:38.974Z,69.62
2019-05-11T01:53:10.739Z,70.17
2019-05-11T01:55:42.333Z,69.76
2019-05-11T01:58:13.595Z,69.70
2019-05-11T02:00:44.161Z,69.72
2019-05-11T02:03:15.255Z,69.51
2019-05-11T02:05:45.975Z,69.56
2019-05-11T02:08:17.223Z,69.76
2019-05-11T02:10:47.533Z,70.08
2019-05-11T02:13:17.969Z,70.05
2019-05-11T02:15:48.520Z,70.34
2019-05-11T02:18:19.297Z,70.55
2019-05-11T02:20:49.545Z,70.67
2019-05-11T02:23:21.011Z,70.79
2019-05-11T02:25:51.310Z,70.74
2019-05-11T02:28:21.717Z,70.79
2019-05-11T02:30:52.818Z,70.75
2019-05-11T02:33:23.213Z,70.70
2019-05-11T02:35:54.572Z,70.70
2019-05-11T02:38:25.681Z,70.57
2019-05-11T02:40:55.997Z,70.45
2019-05-11T02:43:26.446Z,70.58
2019-05-11T02:45:56.792Z,70.49
2019-05-11T02:48:27.768Z,70.32
2019-05-11T02:51:00.291Z,70.07
2019-05-11T02:53:33.709Z,70.47
2019-05-11T02:56:04.562Z,70.44
2019-05-11T02:58:35.099Z,70.54
2019-05-11T03:01:05.915Z,70.66
2019-05-11T03:03:36.229Z,70.25
2019-05-11T03:06:06.626Z,70.59
2019-05-11T03:08:38.497Z,70.42
2019-05-11T03:11:11.129Z,70.28
2019-05-11T03:13:42.000Z,70.51
2019-05-11T03:16:12.730Z,70.32
2019-05-11T03:18:43.664Z,70.60
2019-05-11T03:21:14.407Z,70.68
2019-05-11T03:23:46.148Z,70.64
2019-05-11T03:26:16.646Z,70.84
2019-05-11T03:28:47.319Z,70.93
2019-05-11T03:31:19.684Z,70.95
2019-05-11T03:33:50.929Z,70.96
2019-05-11T03:36:21.247Z,71.15
2019-05-11T03:38:51.937Z,70.82
2019-05-11T03:41:22.204Z,70.63
2019-05-11T03:43:52.961Z,71.02
2019-05-11T03:46:23.429Z,71.04
2019-05-11T03:48:54.600Z,70.95
2019-05-11T03:51:25.407Z,70.98
2019-05-11T03:53:57.122Z,70.91
2019-05-11T03:56:27.492Z,71.00
2019-05-11T03:58:57.773Z,70.98
2019-05-11T04:01:29.197Z,71.21
2019-05-11T04:03:59.499Z,71.18
2019-05-11T04:06:29.767Z,71.25
2019-05-11T04:09:01.898Z,71.35
2019-05-11T04:11:33.647Z,70.65
2019-05-11T04:14:04.438Z,70.79
2019-05-11T04:16:34.752Z,70.96
2019-05-11T04:19:06.155Z,70.93
2019-05-11T04:21:36.580Z,70.98
2019-05-11T04:24:09.083Z,70.67
2019-05-11T04:26:39.418Z,70.34
2019-05-11T04:29:09.911Z,70.31
2019-05-11T04:31:40.169Z,69.88
2019-05-11T04:34:10.539Z,69.88
2019-05-11T04:36:41.099Z,69.96
2019-05-11T04:39:11.398Z,70.28
2019-05-11T04:41:41.748Z,70.14
2019-05-11T04:44:12.111Z,69.82
2019-05-11T04:46:43.713Z,70.03
2019-05-11T04:49:15.249Z,69.33
2019-05-11T04:51:46.798Z,69.11
2019-05-11T04:54:17.809Z,68.89
2019-05-11T04:56:48.676Z,69.02
2019-05-11T04:59:20.410Z,69.39
2019-05-11T05:01:51.672Z,69.43
2019-05-11T05:04:22.320Z,69.03
2019-05-11T05:06:59.955Z,69.02
2019-05-11T05:09:25.660Z,69.17
2019-05-11T05:11:56.856Z,68.87
2019-05-11T05:14:27.204Z,68.68
2019-05-11T05:16:58.426Z,67.34
2019-05-11T05:19:29.626Z,67.80
2019-05-11T05:22:00.864Z,67.58
2019-05-11T05:24:32.167Z,66.48
2019-05-11T05:27:02.503Z,66.86
2019-05-11T05:29:34.807Z,67.20
2019-05-11T05:32:05.132Z,67.86
2019-05-11T05:34:36.721Z,67.59
2019-05-11T05:37:06.965Z,68.14
2019-05-11T05:39:42.082Z,66.68
2019-05-11T05:42:12.325Z,67.85
2019-05-11T05:44:42.721Z,68.54
2019-05-11T05:47:14.373Z,68.99
2019-05-11T05:49:44.701Z,68.86
2019-05-11T05:52:16.172Z,69.04
2019-05-11T05:54:47.404Z,68.40
2019-05-11T05:57:17.718Z,67.42
2019-05-11T05:59:48.022Z,65.59
2019-05-11T06:02:18.666Z,65.13
2019-05-11T06:04:50.318Z,65.49
2019-05-11T06:07:22.287Z,61.34
2019-05-11T06:09:53.537Z,55.61
2019-05-11T06:12:24.778Z,50.83
2019-05-11T06:14:55.198Z,49.19
2019-05-11T06:17:26.138Z,48.19
2019-05-11T06:20:03.714Z,46.49
2019-05-11T06:22:34.573Z,45.52
2019-05-11T06:25:07.624Z,43.43
2019-05-11T06:27:39.709Z,41.15
2019-05-11T06:30:10.725Z,39.70
2019-05-11T06:32:41.898Z,39.29
2019-05-11T06:35:14.461Z,39.34
2019-05-11T06:37:45.121Z,38.92
2019-05-11T06:40:16.825Z,39.10
2019-05-11T06:42:47.693Z,37.51
2019-05-11T06:45:18.490Z,36.59
2019-05-11T06:47:49.128Z,36.34
2019-05-11T06:50:19.861Z,36.29
2019-05-11T06:52:51.129Z,35.09
2019-05-11T06:55:22.291Z,34.28
2019-05-11T06:57:53.288Z,33.73
2019-05-11T07:00:23.602Z,33.80
2019-05-11T07:02:53.983Z,34.33
2019-05-11T07:05:24.704Z,33.88
2019-05-11T07:07:57.439Z,34.67
2019-05-11T07:10:27.894Z,37.12
2019-05-11T07:12:58.733Z,37.87
2019-05-11T07:15:29.256Z,37.53
2019-05-11T07:18:00.258Z,37.29
2019-05-11T07:20:30.900Z,35.14
2019-05-11T07:23:01.319Z,33.98
2019-05-11T07:25:36.798Z,33.80
2019-05-11T07:28:07.108Z,33.64
2019-05-11T07:30:39.094Z,32.65
2019-05-11T07:33:09.339Z,32.51
2019-05-11T07:35:39.729Z,33.98
2019-05-11T07:38:10.358Z,34.62
2019-05-11T07:40:41.493Z,36.42
2019-05-11T07:43:12.034Z,37.36
2019-05-11T07:45:42.710Z,37.71
2019-05-11T07:48:14.016Z,38.93
2019-05-11T07:50:45.138Z,37.80
2019-05-11T07:53:18.420Z,37.54
2019-05-11T07:55:48.711Z,36.28
2019-05-11T07:58:20.414Z,35.77
2019-05-11T08:00:51.485Z,33.34
2019-05-11T08:03:22.446Z,32.61
2019-05-11T08:05:54.733Z,32.29
2019-05-11T08:08:28.141Z,33.04
2019-05-11T08:10:58.676Z,34.47
2019-05-11T08:13:29.638Z,36.12
2019-05-11T08:16:03.120Z,37.38
2019-05-11T08:18:33.839Z,36.07
2019-05-11T08:21:04.392Z,36.68
2019-05-11T08:23:37.735Z,36.19
2019-05-11T08:26:08.882Z,35.79
2019-05-11T08:28:39.423Z,33.75
2019-05-11T08:31:09.743Z,33.57
2019-05-11T08:33:40.028Z,32.81
2019-05-11T08:36:10.352Z,33.42
2019-05-11T08:38:40.673Z,32.94
2019-05-11T08:41:11.075Z,32.89
2019-05-11T08:43:41.491Z,33.04
2019-05-11T08:46:11.854Z,34.42
2019-05-11T08:48:42.693Z,35.98
2019-05-11T08:51:12.999Z,37.41
2019-05-11T08:53:43.916Z,39.35
2019-05-11T08:56:14.889Z,41.30
2019-05-11T08:58:45.585Z,43.49
2019-05-11T09:01:18.089Z,44.24
2019-05-11T09:03:48.567Z,45.72
2019-05-11T09:06:20.113Z,47.04
2019-05-11T09:08:50.511Z,47.74
2019-05-11T09:11:20.976Z,47.54
2019-05-11T09:13:51.593Z,48.29
2019-05-11T09:16:22.121Z,48.81
2019-05-11T09:18:52.965Z,48.91
2019-05-11T09:21:23.280Z,48.44
2019-05-11T09:23:53.670Z,48.17
2019-05-11T09:26:25.085Z,49.38
2019-05-11T09:28:58.171Z,49.78
2019-05-11T09:31:28.866Z,50.11
2019-05-11T09:34:00.215Z,50.11
2019-05-11T09:36:30.490Z,49.14
2019-05-11T09:39:00.829Z,48.37
2019-05-11T09:41:34.473Z,48.18
2019-05-11T09:44:08.945Z,47.99
2019-05-11T09:46:39.679Z,48.37
2019-05-11T09:49:10.855Z,49.07
2019-05-11T09:51:41.469Z,49.55
2019-05-11T09:54:12.338Z,50.34
2019-05-11T09:56:44.937Z,50.85
2019-05-11T09:59:17.884Z,51.56
2019-05-11T10:01:48.441Z,51.79
2019-05-11T10:04:20.977Z,51.04
2019-05-11T10:06:51.281Z,49.89
2019-05-11T10:09:21.627Z,48.49
2019-05-11T10:11:52.061Z,47.06
2019-05-11T10:14:22.378Z,46.77
2019-05-11T10:16:52.874Z,44.51
2019-05-11T10:19:23.515Z,42.99
2019-05-11T10:21:54.064Z,40.64
2019-05-11T10:24:24.310Z,39.99
2019-05-11T10:26:54.704Z,38.80
2019-05-11T10:29:28.732Z,39.29
2019-05-11T10:31:58.913Z,39.09
2019-05-11T10:34:33.071Z,40.64
2019-05-11T10:37:03.374Z,42.67
2019-05-11T10:39:34.510Z,44.78
2019-05-11T10:42:05.245Z,45.75
2019-05-11T10:44:38.374Z,47.04
2019-05-11T10:47:08.353Z,47.39
2019-05-11T10:49:40.777Z,47.66
2019-05-11T10:52:11.668Z,47.60
2019-05-11T10:54:42.137Z,46.28
2019-05-11T10:57:14.370Z,44.32
2019-05-11T10:59:44.682Z,42.05
2019-05-11T11:02:15.198Z,40.74
2019-05-11T11:04:48.593Z,39.79
2019-05-11T11:07:20.337Z,41.03
2019-05-11T11:09:51.194Z,48.10
2019-05-11T11:12:21.895Z,41.51
2019-05-11T11:14:52.980Z,41.52
2019-05-11T11:17:23.304Z,42.62
2019-05-11T11:19:54.277Z,43.29
2019-05-11T11:22:37.049Z,42.30
2019-05-11T11:24:59.893Z,43.78
2019-05-11T11:27:32.863Z,42.78
2019-05-11T11:30:05.267Z,42.50
2019-05-11T11:32:38.142Z,41.83
2019-05-11T11:35:10.280Z,40.70
2019-05-11T11:37:41.701Z,40.69
2019-05-11T11:40:17.513Z,39.52
2019-05-11T11:42:47.891Z,39.89
2019-05-11T11:45:19.157Z,39.73
2019-05-11T11:47:50.883Z,40.13
2019-05-11T11:50:22.415Z,39.45
2019-05-11T11:52:52.856Z,39.37
2019-05-11T11:55:23.925Z,40.02
2019-05-11T11:57:55.539Z,40.01
2019-05-11T12:00:28.150Z,40.08
2019-05-11T12:02:58.530Z,39.36
2019-05-11T12:05:28.937Z,40.13
2019-05-11T12:07:59.186Z,39.94
2019-05-11T12:10:31.193Z,39.64
2019-05-11T12:13:02.315Z,39.43
2019-05-11T12:15:33.357Z,39.43
2019-05-11T12:18:04.323Z,39.64
2019-05-11T12:20:34.630Z,40.35
2019-05-11T12:23:05.051Z,39.44
2019-05-11T12:25:38.263Z,38.02
2019-05-11T12:28:08.165Z,38.07
2019-05-11T12:30:38.655Z,38.86
2019-05-11T12:33:12.544Z,38.46
2019-05-11T12:35:42.013Z,37.44
2019-05-11T12:38:12.186Z,36.09
2019-05-11T12:40:43.049Z,37.16
2019-05-11T12:43:13.842Z,37.26
2019-05-11T12:45:44.743Z,37.00
2019-05-11T12:48:15.068Z,36.09
2019-05-11T12:50:48.242Z,36.60
2019-05-11T12:53:19.113Z,37.56
2019-05-11T12:55:49.605Z,37.04
2019-05-11T12:58:20.903Z,36.05
2019-05-11T13:00:51.157Z,36.54
2019-05-11T13:03:21.396Z,36.95
2019-05-11T13:05:52.314Z,35.82
2019-05-11T13:08:22.817Z,36.37
2019-05-11T13:10:53.058Z,36.60
2019-05-11T13:13:23.901Z,36.69
2019-05-11T13:15:54.216Z,36.13
2019-05-11T13:18:29.495Z,36.51
2019-05-11T13:21:00.151Z,35.53
2019-05-11T13:23:31.541Z,35.64
2019-05-11T13:26:01.848Z,36.08
2019-05-11T13:28:33.618Z,35.18
2019-05-11T13:31:05.185Z,36.31
2019-05-11T13:33:35.759Z,36.58
2019-05-11T13:36:06.080Z,36.96
2019-05-11T13:38:38.783Z,36.23
2019-05-11T13:41:09.292Z,36.07
2019-05-11T13:43:39.744Z,35.12
2019-05-11T13:46:10.101Z,36.33
2019-05-11T13:48:41.605Z,34.77
2019-05-11T13:51:11.901Z,34.00
2019-05-11T13:53:42.697Z,35.39
2019-05-11T13:56:12.973Z,36.11
2019-05-11T13:58:45.676Z,35.68
2019-05-11T14:01:18.169Z,36.05
2019-05-11T14:03:49.197Z,36.38
2019-05-11T14:06:20.035Z,36.95
2019-05-11T14:08:51.173Z,37.03
2019-05-11T14:11:21.593Z,35.66
2019-05-11T14:13:52.586Z,34.95
2019-05-11T14:16:23.190Z,35.59
2019-05-11T14:18:55.024Z,35.29
2019-05-11T14:21:27.992Z,34.75
2019-05-11T14:23:59.682Z,35.56
2019-05-11T14:26:30.460Z,36.10
2019-05-11T14:29:02.766Z,36.17
2019-05-11T14:31:33.007Z,36.56
2019-05-11T14:34:04.164Z,37.40
2019-05-11T14:36:34.817Z,37.21
2019-05-11T14:39:08.688Z,36.30
2019-05-11T14:41:38.495Z,35.64
2019-05-11T14:44:09.097Z,36.09
2019-05-11T14:46:39.776Z,36.73
2019-05-11T14:49:10.955Z,37.12
2019-05-11T14:51:42.102Z,37.51
2019-05-11T14:54:12.802Z,36.92
2019-05-11T14:56:44.355Z,37.46
2019-05-11T14:59:14.777Z,37.73
2019-05-11T15:01:48.790Z,37.43
2019-05-11T15:04:18.747Z,37.84
2019-05-11T15:06:49.901Z,37.90
2019-05-11T15:09:20.211Z,37.75
2019-05-11T15:11:52.634Z,38.29
2019-05-11T15:14:28.835Z,38.08
2019-05-11T15:17:00.294Z,38.21
2019-05-11T15:19:30.818Z,37.49
2019-05-11T15:22:01.058Z,38.09
2019-05-11T15:24:32.589Z,38.65
2019-05-11T15:27:02.981Z,39.14
2019-05-11T15:29:34.466Z,39.04
2019-05-11T15:32:04.957Z,39.55
2019-05-11T15:34:37.930Z,39.13
2019-05-11T15:37:08.496Z,38.80
2019-05-11T15:39:39.654Z,39.48
2019-05-11T15:42:16.601Z,39.43
2019-05-11T15:44:43.485Z,38.84
2019-05-11T15:47:14.157Z,39.17
2019-05-11T15:49:48.062Z,38.75
2019-05-11T15:52:18.774Z,39.29
2019-05-11T15:54:49.575Z,39.81
2019-05-11T15:57:19.880Z,39.74
2019-05-11T15:59:50.939Z,39.75
2019-05-11T16:02:21.666Z,39.35
2019-05-11T16:04:52.281Z,38.80
2019-05-11T16:07:22.510Z,39.38
2019-05-11T16:09:52.788Z,38.88
2019-05-11T16:12:24.193Z,38.18
2019-05-11T16:14:54.844Z,38.61
2019-05-11T16:17:25.865Z,38.47
2019-05-11T16:19:58.092Z,38.92
2019-05-11T16:22:30.457Z,38.24
2019-05-11T16:25:01.458Z,38.89
2019-05-11T16:27:32.058Z,39.07
2019-05-11T16:30:03.946Z,39.35
2019-05-11T16:32:34.360Z,38.96
2019-05-11T16:35:09.065Z,38.99
2019-05-11T16:37:39.601Z,39.20
2019-05-11T16:40:12.585Z,39.50
2019-05-11T16:42:43.076Z,38.85
2019-05-11T16:45:18.951Z,38.72
2019-05-11T16:47:49.960Z,37.97
2019-05-11T16:50:21.456Z,38.43
2019-05-11T16:52:52.177Z,38.44
2019-05-11T16:55:23.124Z,38.65
2019-05-11T16:57:55.285Z,38.37
2019-05-11T17:00:26.385Z,38.21
2019-05-11T17:02:57.750Z,39.33
2019-05-11T17:05:33.248Z,39.05
2019-05-11T17:08:00.950Z,38.57
2019-05-11T17:10:31.820Z,38.15
2019-05-11T17:13:03.426Z,38.67
2019-05-11T17:15:34.724Z,38.91
2019-05-11T17:18:05.035Z,38.45
2019-05-11T17:20:35.389Z,38.84
2019-05-11T17:23:05.729Z,39.17
2019-05-11T17:25:37.969Z,39.74
2019-05-11T17:28:09.994Z,39.83
2019-05-11T17:30:40.397Z,39.64
2019-05-11T17:33:10.757Z,39.52
2019-05-11T17:35:41.912Z,40.23
2019-05-11T17:38:12.220Z,39.52
2019-05-11T17:40:42.494Z,38.87
2019-05-11T17:43:13.643Z,39.25
2019-05-11T17:45:44.394Z,38.67
2019-05-11T17:48:14.951Z,38.87
2019-05-11T17:50:45.190Z,39.86
2019-05-11T17:53:18.292Z,39.62
2019-05-11T17:55:48.917Z,39.67
2019-05-11T17:58:19.514Z,38.91
2019-05-11T18:00:51.086Z,38.78
2019-05-11T18:03:21.432Z,38.13
2019-05-11T18:05:52.120Z,38.00
2019-05-11T18:08:22.818Z,38.15
2019-05-11T18:10:53.665Z,38.07
2019-05-11T18:13:24.200Z,38.48
2019-05-11T18:15:55.108Z,38.47
2019-05-11T18:18:29.082Z,37.99
2019-05-11T18:21:00.508Z,38.50
2019-05-11T18:23:30.836Z,38.52
2019-05-11T18:26:01.118Z,39.02
2019-05-11T18:28:31.462Z,39.20
2019-05-11T18:31:02.858Z,39.61
2019-05-11T18:33:33.512Z,39.57
2019-05-11T18:36:04.534Z,39.54
2019-05-11T18:38:34.884Z,39.86
2019-05-11T18:41:05.264Z,40.01
2019-05-11T18:43:37.759Z,40.63
2019-05-11T18:46:08.892Z,40.77
2019-05-11T18:48:39.228Z,41.40
2019-05-11T18:51:09.811Z,41.59
2019-05-11T18:53:40.334Z,41.96
2019-05-11T18:56:11.188Z,42.19
2019-05-11T18:58:43.158Z,43.25
2019-05-11T19:01:17.548Z,43.97
2019-05-11T19:03:47.990Z,44.51
2019-05-11T19:06:21.061Z,44.78
2019-05-11T19:08:51.296Z,45.87
2019-05-11T19:11:21.608Z,45.81
2019-05-11T19:13:52.857Z,46.67
2019-05-11T19:16:23.180Z,46.74
2019-05-11T19:18:54.314Z,47.10
2019-05-11T19:21:24.740Z,47.42
2019-05-11T19:23:55.290Z,47.46
2019-05-11T19:26:25.927Z,47.22
2019-05-11T19:28:57.838Z,47.14
2019-05-11T19:31:31.074Z,48.22
2019-05-11T19:34:02.013Z,49.04
2019-05-11T19:36:32.315Z,49.73
2019-05-11T19:39:03.042Z,50.16
2019-05-11T19:41:34.244Z,50.27
2019-05-11T19:44:05.331Z,50.48
2019-05-11T19:46:38.357Z,50.12
2019-05-11T19:49:09.095Z,50.02
2019-05-11T19:51:42.512Z,49.90
2019-05-11T19:54:12.765Z,50.02
2019-05-11T19:56:45.840Z,50.88
2019-05-11T19:59:16.465Z,51.25
2019-05-11T20:01:48.115Z,51.87
2019-05-11T20:04:18.890Z,51.81
2019-05-11T20:06:49.749Z,51.27
2019-05-11T20:09:20.752Z,51.78
2019-05-11T20:11:51.669Z,51.93
2019-05-11T20:14:22.057Z,51.91
2019-05-11T20:16:53.031Z,52.52
2019-05-11T20:19:23.729Z,52.84
2019-05-11T20:21:54.657Z,52.78
2019-05-11T20:24:25.293Z,53.08
2019-05-11T20:26:56.891Z,53.30
2019-05-11T20:29:27.743Z,53.59
2019-05-11T20:31:59.202Z,53.40
2019-05-11T20:34:29.885Z,53.85
2019-05-11T20:37:01.463Z,54.09
2019-05-11T20:39:32.255Z,54.36
2019-05-11T20:42:02.625Z,54.81
2019-05-11T20:44:33.265Z,54.92
2019-05-11T20:47:04.137Z,55.14
2019-05-11T20:49:35.426Z,55.49
2019-05-11T20:52:08.534Z,56.04
2019-05-11T20:54:38.759Z,56.22
2019-05-11T20:57:11.601Z,56.58
2019-05-11T20:59:42.869Z,56.88
2019-05-11T21:02:14.839Z,57.18
2019-05-11T21:04:45.069Z,57.55
2019-05-11T21:07:19.961Z,57.65
2019-05-11T21:09:50.598Z,57.75
2019-05-11T21:12:22.490Z,58.01
2019-05-11T21:14:52.848Z,58.31
2019-05-11T21:17:23.783Z,58.08
2019-05-11T21:19:54.137Z,58.33
2019-05-11T21:22:25.492Z,58.48
2019-05-11T21:24:58.198Z,58.80
2019-05-11T21:27:28.756Z,59.54
2019-05-11T21:29:59.424Z,59.93
2019-05-11T21:32:31.350Z,60.06
2019-05-11T21:35:02.150Z,60.21
2019-05-11T21:37:32.525Z,60.48
2019-05-11T21:40:02.873Z,60.74
2019-05-11T21:42:34.936Z,61.01
2019-05-11T21:45:09.087Z,61.20
2019-05-11T21:47:40.420Z,61.30
2019-05-11T21:50:11.117Z,61.32
2019-05-11T21:52:42.164Z,61.75
2019-05-11T21:55:12.861Z,62.03
2019-05-11T21:57:44.075Z,62.14
2019-05-11T22:00:14.882Z,62.42
2019-05-11T22:02:48.623Z,62.24
2019-05-11T22:05:20.884Z,62.39
2019-05-11T22:07:51.349Z,62.62
2019-05-11T22:10:21.672Z,62.66
2019-05-11T22:12:53.250Z,63.17
2019-05-11T22:15:24.342Z,63.32
2019-05-11T22:17:54.795Z,63.28
2019-05-11T22:20:25.323Z,63.26
2019-05-11T22:22:58.186Z,63.16
2019-05-11T22:25:28.872Z,63.10
2019-05-11T22:27:59.614Z,62.67
2019-05-11T22:30:30.051Z,63.27
2019-05-11T22:33:01.747Z,62.92
2019-05-11T22:35:32.461Z,62.88
2019-05-11T22:38:03.130Z,62.81
2019-05-11T22:40:33.448Z,63.46
2019-05-11T22:43:05.000Z,63.74
2019-05-11T22:45:35.315Z,63.81
2019-05-11T22:48:07.927Z,63.91
2019-05-11T22:50:38.796Z,64.02
2019-05-11T22:53:11.812Z,63.97
2019-05-11T22:55:42.098Z,64.21
2019-05-11T22:58:13.513Z,64.10
2019-05-11T23:00:45.779Z,64.30
2019-05-11T23:03:19.873Z,64.12
2019-05-11T23:05:50.455Z,64.44
2019-05-11T23:08:21.123Z,64.46
2019-05-11T23:10:51.444Z,64.38
2019-05-11T23:13:23.305Z,64.44
2019-05-11T23:15:53.629Z,64.35
2019-05-11T23:18:24.071Z,64.43
2019-05-11T23:20:54.377Z,64.62
2019-05-11T23:23:25.425Z,64.64
2019-05-11T23:25:57.541Z,64.62
2019-05-11T23:28:28.939Z,64.53
2019-05-11T23:30:59.922Z,64.66
2019-05-11T23:33:32.137Z,64.69
2019-05-11T23:36:02.441Z,64.95
2019-05-11T23:38:32.885Z,64.97
2019-05-11T23:41:03.526Z,65.05
2019-05-11T23:43:35.435Z,65.05
2019-05-11T23:46:05.706Z,65.15
2019-05-11T23:48:38.414Z,65.18
2019-05-11T23:51:08.808Z,65.09
2019-05-11T23:53:40.534Z,65.19
2019-05-11T23:56:10.873Z,65.15
2019-05-11T23:58:41.188Z,64.90
